Corentin Delbecq

Corentin Delbecq

Statistiques 2026

  • Courses courues : 23
  • Nb de victoires : 1
  • Nb de places : 7
  • Écart gagnant : 13
  • Réussite à la gagne : 4%
  • Réussite à la place : 30%
Musique : 0a 0a Da 3a 2a 6a 5a Da 7a 7a Dista 5a 4a 1a 6a 2a Da 8a
DateRangCatégorieAlloc.Dist.HippodromeChevalRed. KmSpé.
27/11/18 D Trot 22 000€ 2 875m Mauquenchy Cliche Meslois Attelé
27/11/18 6 Trot 20 000€ 2 850m Mauquenchy Emir Meslois 1'20"5 Attelé
25/11/18 9 Trot 15 000€ 2 600m Reims Eldorado d'Arbaz 1'20"6 Monté
22/11/18 2 Trot 20 000€ 2 850m Vincennes Diderot de Meslay 1'16"6 Attelé lire

Vite derrière les leaders, a pris le meilleur à la distance avant de s'incliner près du but.

19/11/18 2 Trot 12 000€ 2 750m Cabourg Emir Meslois 1'18"3 Attelé
18/11/18 5 Trot 18 000€ 2 800m Argentan Coucou de Godisson 1'17"1 Attelé
07/11/18 D Trot 12 000€ 2 450m Caen Fluo Meslois Attelé
06/11/18 7 Trot 46 000€ 3 550m Vincennes Voltigeur de Myrt 1'16"9 Attelé lire

Vite aux premiers rangs, a faibli dans la phase finale.

04/11/18 D Trot 20 000€ 2 900m Argentan Dard Roc Attelé lire

A très vite pris le galop.

22/10/18 0 Trot 42 000€ 2 150m Enghien Soisy Danube Meslois Attelé lire

Un des animateurs, a nettement faibli pour finir.

22/10/18 D Trot 52 000€ 2 900m Enghien Soisy Be Bop Meslois Attelé lire

A très vite pris le galop.

18/10/18 1 Trot 38 000€ 2 875m Enghien Soisy Escale Mesloise 1'16"1 Attelé lire

Attentiste, est venue aux premiers rangs au bout de la ligne opposée, se montrant la plus forte de haute lutte.

16/10/18 7 Trot 46 000€ 2 100m Vincennes Brooklyn Blue 1'14"2 Attelé lire

Vite en queue de peloton, a terminé fort honorablement.

14/10/18 D Trot 15 000€ 2 700m Graignes Escampette Attelé
13/10/18 2 Trot 28 000€ 2 775m Cabourg Dard Roc 1'14"5 Attelé
13/10/18 7 Trot 26 000€ 2 750m Cabourg Emir Meslois 1'17"0 Attelé
10/10/18 D Trot 28 000€ 2 850m Lyon Parilly Atlantic Paris Monté
06/10/18 3 Trot 19 000€ 2 875m Laval Escale Mesloise 1'17"0 Attelé
06/10/18 5 Trot 20 000€ 2 875m Laval Danube Meslois 1'15"6 Attelé
06/10/18 D Trot 20 000€ 2 875m Laval Cliche Meslois Attelé
02/10/18 D Trot 20 000€ 2 750m Cabourg Fluo Meslois Monté
01/10/18 4 Mixte 20 000€ 2 700m Segre Atlantic Paris TNC Monté
01/10/18 4 Mixte 11 000€ 2 725m Segre Forever Majyc Attelé
30/09/18 1 Mixte 25 000€ 2 700m Segre Vloum de Bois 1'17"9 Attelé
30/09/18 D Mixte 11 000€ 2 725m Segre Fortuna Mesloise Attelé
29/09/18 4 Trot 22 000€ 2 800m Chartres Diderot de Meslay 1'17"3 Attelé
23/09/18 0 Trot 17 000€ 2 525m Les Andelys Dimitrius Attelé
23/09/18 2 Trot 24 000€ 2 550m Les Andelys Cadence Del Fretta Monté
23/09/18 3 Trot 15 000€ 2 550m Les Andelys Full Moon Draliam Attelé
23/09/18 D Trot 15 000€ 2 525m Les Andelys Fast d'Aveze Attelé
17/09/18 D Trot 20 000€ 2 750m Cabourg Erha d'Antan Monté
16/09/18 2 Trot 23 000€ 2 850m Mauquenchy Diderot de Meslay 1'16"8 Attelé
10/09/18 0 Trot 12 000€ 2 450m Caen Fluo Meslois Attelé
09/09/18 D Trot 17 000€ 2 800m Argentan Dance Floor Attelé
09/09/18 D Trot 16 000€ 2 800m Moulins La Marche Bingo Speed Monté
09/09/18 1 Trot 10 000€ 2 225m Moulins La Marche Fortuna Mesloise TNC Attelé
08/09/18 1 Trot 12 000€ 2 400m Nort Sur Erdre Forever Majyc TNC Attelé
02/09/18 7 Trot 15 000€ 2 675m Alencon Espoir des Ventes Attelé
02/09/18 2 Trot 11 000€ 2 675m Alencon Facile En Affaires Monté
31/08/18 D Trot 24 000€ 3 000m Vichy Cliche Meslois Attelé
28/08/18 D Trot 20 000€ 2 875m Laval Escale Mesloise Attelé
26/08/18 5 Trot 12 000€ 2 500m Vibraye Flood Of Love Attelé
25/08/18 7 Trot 36 000€ 2 700m Vincennes Forum Meslois 1'16"9 Attelé lire

Après avoir figuré, a vainement tenté de changer de rythme pour finir.

19/08/18 2 Trot 20 000€ 2 550m Cherbourg Fast d'Aveze 1'17"0 Attelé
19/08/18 D Trot 26 000€ 2 625m Cherbourg Eroling du Mesle Attelé
19/08/18 D Trot 27 000€ 2 550m Cherbourg Be Bop Meslois Attelé
15/08/18 D Trot 12 000€ 2 775m Les Sables D'Olonne Flood Of Love Attelé
15/08/18 D Trot 13 000€ 2 775m Les Sables D'Olonne Esperado d'Or Monté
15/08/18 6 Trot 14 000€ 2 650m Les Sables D'Olonne Easy du Calorne 1'18"9 Attelé
15/08/18 2 Trot 16 000€ 2 775m Les Sables D'Olonne Doff Jim 1'15"9 Monté